CheckWX is a tool to help pilots better visualize weather data.  It is not intended as a substitute for an official pre-flight weather briefing.

21:51:27 UTC

LJLJ TAF
Ljubljana Jože Pučnik Airport Airport
Ljubljana, Slovenia
TAF LJLJ 092300Z 1000/1024 12005KT CAVOK

Jul-10@
00:00 UTC

Jul-10 @ 00:00 UTC

Jul-11@
00:00 UTC

Jul-11 @ 00:00 UTC

TAF LJLJ 092300Z 1000/1024 12005KT CAVOK
Wind
  • 120° at 5 KTS
Conditions
No significant weather
Cloud Levels
  • No significant clouds